sensor_id;sensor_type;location;lat;lon;timestamp;temperature;humidity
4548;DHT22;2286;51.570;7.090;2024-01-25T00:02:19;8.70;99.90
4548;DHT22;2286;51.570;7.090;2024-01-25T00:04:46;8.70;99.90
4548;DHT22;2286;51.570;7.090;2024-01-25T00:07:13;8.70;99.90
4548;DHT22;2286;51.570;7.090;2024-01-25T00:09:41;8.70;99.90
4548;DHT22;2286;51.570;7.090;2024-01-25T00:12:08;8.70;99.90
4548;DHT22;2286;51.570;7.090;2024-01-25T00:14:35;8.60;99.90
4548;DHT22;2286;51.570;7.090;2024-01-25T00:17:02;8.70;99.90
4548;DHT22;2286;51.570;7.090;2024-01-25T00:19:28;8.70;99.90
4548;DHT22;2286;51.570;7.090;2024-01-25T00:21:55;8.70;99.90
4548;DHT22;2286;51.570;7.090;2024-01-25T00:24:22;8.70;99.90
4548;DHT22;2286;51.570;7.090;2024-01-25T00:26:50;8.60;99.90
4548;DHT22;2286;51.570;7.090;2024-01-25T00:29:17;8.60;99.90
4548;DHT22;2286;51.570;7.090;2024-01-25T00:31:44;8.50;99.90
4548;DHT22;2286;51.570;7.090;2024-01-25T00:34:11;8.50;99.90
4548;DHT22;2286;51.570;7.090;2024-01-25T00:36:38;8.40;1.00
4548;DHT22;2286;51.570;7.090;2024-01-25T00:39:06;8.40;1.00
4548;DHT22;2286;51.570;7.090;2024-01-25T00:41:34;8.30;1.00
4548;DHT22;2286;51.570;7.090;2024-01-25T00:44:04;8.30;1.00
4548;DHT22;2286;51.570;7.090;2024-01-25T00:46:31;8.30;1.00
4548;DHT22;2286;51.570;7.090;2024-01-25T00:48:58;8.30;1.00
4548;DHT22;2286;51.570;7.090;2024-01-25T00:51:25;8.30;1.00
4548;DHT22;2286;51.570;7.090;2024-01-25T00:53:52;8.20;1.00
4548;DHT22;2286;51.570;7.090;2024-01-25T00:56:20;8.20;1.00
4548;DHT22;2286;51.570;7.090;2024-01-25T00:58:47;8.20;1.00
4548;DHT22;2286;51.570;7.090;2024-01-25T01:01:16;8.10;1.00
4548;DHT22;2286;51.570;7.090;2024-01-25T01:03:45;8.00;6.70
4548;DHT22;2286;51.570;7.090;2024-01-25T01:06:18;7.90;99.90
4548;DHT22;2286;51.570;7.090;2024-01-25T01:08:45;7.80;99.90
4548;DHT22;2286;51.570;7.090;2024-01-25T01:11:12;7.70;99.90
4548;DHT22;2286;51.570;7.090;2024-01-25T01:13:39;7.60;99.90
4548;DHT22;2286;51.570;7.090;2024-01-25T01:16:06;7.60;1.00
4548;DHT22;2286;51.570;7.090;2024-01-25T01:18:34;7.60;1.00
4548;DHT22;2286;51.570;7.090;2024-01-25T01:21:01;7.60;1.00
4548;DHT22;2286;51.570;7.090;2024-01-25T01:23:28;7.50;1.00
4548;DHT22;2286;51.570;7.090;2024-01-25T01:25:55;7.40;1.00
4548;DHT22;2286;51.570;7.090;2024-01-25T01:28:21;7.50;1.00
4548;DHT22;2286;51.570;7.090;2024-01-25T01:30:48;7.50;1.00
4548;DHT22;2286;51.570;7.090;2024-01-25T01:33:15;7.50;1.00
4548;DHT22;2286;51.570;7.090;2024-01-25T01:35:43;7.50;1.00
4548;DHT22;2286;51.570;7.090;2024-01-25T01:38:10;7.60;1.00
4548;DHT22;2286;51.570;7.090;2024-01-25T01:40:37;7.60;1.00
4548;DHT22;2286;51.570;7.090;2024-01-25T01:43:04;7.60;1.00
4548;DHT22;2286;51.570;7.090;2024-01-25T01:45:31;7.70;1.00
4548;DHT22;2286;51.570;7.090;2024-01-25T01:47:59;7.70;1.00
4548;DHT22;2286;51.570;7.090;2024-01-25T01:50:27;7.70;1.00
4548;DHT22;2286;51.570;7.090;2024-01-25T01:52:55;7.70;1.00
4548;DHT22;2286;51.570;7.090;2024-01-25T01:55:23;7.80;99.90
4548;DHT22;2286;51.570;7.090;2024-01-25T01:57:50;7.70;99.90
4548;DHT22;2286;51.570;7.090;2024-01-25T02:00:17;7.70;99.90
4548;DHT22;2286;51.570;7.090;2024-01-25T02:02:44;7.70;99.90
4548;DHT22;2286;51.570;7.090;2024-01-25T02:05:11;7.70;99.90
4548;DHT22;2286;51.570;7.090;2024-01-25T02:07:39;7.70;99.90
4548;DHT22;2286;51.570;7.090;2024-01-25T02:10:09;7.70;99.90
4548;DHT22;2286;51.570;7.090;2024-01-25T02:12:36;7.70;99.90
4548;DHT22;2286;51.570;7.090;2024-01-25T02:15:05;7.70;99.90
4548;DHT22;2286;51.570;7.090;2024-01-25T02:17:33;7.60;99.90
4548;DHT22;2286;51.570;7.090;2024-01-25T02:20:00;7.60;99.90
4548;DHT22;2286;51.570;7.090;2024-01-25T02:22:30;7.50;99.90
4548;DHT22;2286;51.570;7.090;2024-01-25T02:24:58;7.50;99.90
4548;DHT22;2286;51.570;7.090;2024-01-25T02:27:25;7.40;99.90
4548;DHT22;2286;51.570;7.090;2024-01-25T02:29:52;7.40;1.00
4548;DHT22;2286;51.570;7.090;2024-01-25T02:32:19;7.30;1.00
4548;DHT22;2286;51.570;7.090;2024-01-25T02:34:47;7.20;1.00
4548;DHT22;2286;51.570;7.090;2024-01-25T02:37:14;7.10;1.00
4548;DHT22;2286;51.570;7.090;2024-01-25T02:39:42;7.10;1.00
4548;DHT22;2286;51.570;7.090;2024-01-25T02:42:10;7.00;1.00
4548;DHT22;2286;51.570;7.090;2024-01-25T02:44:37;7.00;24.30
4548;DHT22;2286;51.570;7.090;2024-01-25T02:47:04;6.90;99.90
4548;DHT22;2286;51.570;7.090;2024-01-25T02:49:31;6.80;99.90
4548;DHT22;2286;51.570;7.090;2024-01-25T02:51:58;6.80;99.90
4548;DHT22;2286;51.570;7.090;2024-01-25T02:54:26;6.80;99.90
4548;DHT22;2286;51.570;7.090;2024-01-25T02:56:54;6.80;99.90
4548;DHT22;2286;51.570;7.090;2024-01-25T02:59:21;6.70;99.90
4548;DHT22;2286;51.570;7.090;2024-01-25T03:01:49;6.70;99.90
4548;DHT22;2286;51.570;7.090;2024-01-25T03:04:15;6.70;99.90
4548;DHT22;2286;51.570;7.090;2024-01-25T03:06:42;6.60;99.90
4548;DHT22;2286;51.570;7.090;2024-01-25T03:09:09;6.60;1.00
4548;DHT22;2286;51.570;7.090;2024-01-25T03:11:36;6.50;1.00
4548;DHT22;2286;51.570;7.090;2024-01-25T03:14:05;6.50;1.00
4548;DHT22;2286;51.570;7.090;2024-01-25T03:16:32;6.50;1.00
4548;DHT22;2286;51.570;7.090;2024-01-25T03:18:59;6.40;1.00
4548;DHT22;2286;51.570;7.090;2024-01-25T03:21:26;6.30;47.70
4548;DHT22;2286;51.570;7.090;2024-01-25T03:23:53;6.30;99.90
4548;DHT22;2286;51.570;7.090;2024-01-25T03:26:20;6.30;99.90
4548;DHT22;2286;51.570;7.090;2024-01-25T03:28:47;6.30;99.90
4548;DHT22;2286;51.570;7.090;2024-01-25T03:31:15;6.30;99.90
4548;DHT22;2286;51.570;7.090;2024-01-25T03:33:43;6.10;99.90
4548;DHT22;2286;51.570;7.090;2024-01-25T03:36:13;6.10;99.90
4548;DHT22;2286;51.570;7.090;2024-01-25T03:38:40;6.00;99.90
4548;DHT22;2286;51.570;7.090;2024-01-25T03:41:08;5.90;1.00
4548;DHT22;2286;51.570;7.090;2024-01-25T03:43:35;5.80;1.00
4548;DHT22;2286;51.570;7.090;2024-01-25T03:46:02;5.90;63.30
4548;DHT22;2286;51.570;7.090;2024-01-25T03:48:31;5.80;99.90
4548;DHT22;2286;51.570;7.090;2024-01-25T03:50:58;5.80;99.90
4548;DHT22;2286;51.570;7.090;2024-01-25T03:53:25;5.90;99.90
4548;DHT22;2286;51.570;7.090;2024-01-25T03:55:52;5.80;99.90
4548;DHT22;2286;51.570;7.090;2024-01-25T03:58:19;5.80;99.90
4548;DHT22;2286;51.570;7.090;2024-01-25T04:00:46;5.80;1.00
4548;DHT22;2286;51.570;7.090;2024-01-25T04:03:14;5.80;99.90
4548;DHT22;2286;51.570;7.090;2024-01-25T04:05:42;5.80;1.00
4548;DHT22;2286;51.570;7.090;2024-01-25T04:08:09;5.70;1.00
4548;DHT22;2286;51.570;7.090;2024-01-25T04:10:36;5.70;1.00
4548;DHT22;2286;51.570;7.090;2024-01-25T04:13:04;5.70;1.00
4548;DHT22;2286;51.570;7.090;2024-01-25T04:15:32;5.70;1.00
4548;DHT22;2286;51.570;7.090;2024-01-25T04:17:59;5.60;1.00
4548;DHT22;2286;51.570;7.090;2024-01-25T04:20:26;5.60;1.00
4548;DHT22;2286;51.570;7.090;2024-01-25T04:22:54;5.40;1.00
4548;DHT22;2286;51.570;7.090;2024-01-25T04:25:21;5.40;55.00
4548;DHT22;2286;51.570;7.090;2024-01-25T04:27:48;5.40;99.90
4548;DHT22;2286;51.570;7.090;2024-01-25T04:30:15;5.50;1.00
4548;DHT22;2286;51.570;7.090;2024-01-25T04:32:42;5.40;99.90
4548;DHT22;2286;51.570;7.090;2024-01-25T04:35:09;5.40;99.90
4548;DHT22;2286;51.570;7.090;2024-01-25T04:37:36;5.30;99.90
4548;DHT22;2286;51.570;7.090;2024-01-25T04:40:06;5.20;99.90
4548;DHT22;2286;51.570;7.090;2024-01-25T04:42:33;5.10;1.00
4548;DHT22;2286;51.570;7.090;2024-01-25T04:45:00;5.10;1.00
4548;DHT22;2286;51.570;7.090;2024-01-25T04:47:28;5.20;99.90
4548;DHT22;2286;51.570;7.090;2024-01-25T04:49:56;5.10;99.90
4548;DHT22;2286;51.570;7.090;2024-01-25T04:52:23;5.10;99.90
4548;DHT22;2286;51.570;7.090;2024-01-25T04:54:50;5.00;99.90
4548;DHT22;2286;51.570;7.090;2024-01-25T04:57:18;5.00;99.90
4548;DHT22;2286;51.570;7.090;2024-01-25T04:59:45;5.00;1.00
4548;DHT22;2286;51.570;7.090;2024-01-25T05:02:12;5.00;1.00
4548;DHT22;2286;51.570;7.090;2024-01-25T05:04:40;4.90;1.00
4548;DHT22;2286;51.570;7.090;2024-01-25T05:07:07;4.90;99.90
4548;DHT22;2286;51.570;7.090;2024-01-25T05:09:34;4.90;99.90
4548;DHT22;2286;51.570;7.090;2024-01-25T05:12:01;4.90;99.90
4548;DHT22;2286;51.570;7.090;2024-01-25T05:14:30;4.90;1.00
4548;DHT22;2286;51.570;7.090;2024-01-25T05:16:57;5.00;1.00
4548;DHT22;2286;51.570;7.090;2024-01-25T05:19:24;5.00;1.00
4548;DHT22;2286;51.570;7.090;2024-01-25T05:21:51;5.00;12.40
4548;DHT22;2286;51.570;7.090;2024-01-25T05:24:18;4.90;1.00
4548;DHT22;2286;51.570;7.090;2024-01-25T05:26:45;4.90;1.00
4548;DHT22;2286;51.570;7.090;2024-01-25T05:29:12;4.80;1.00
4548;DHT22;2286;51.570;7.090;2024-01-25T05:31:41;4.80;1.00
4548;DHT22;2286;51.570;7.090;2024-01-25T05:34:08;4.80;99.90
4548;DHT22;2286;51.570;7.090;2024-01-25T05:36:35;4.80;99.90
4548;DHT22;2286;51.570;7.090;2024-01-25T05:39:02;4.70;99.90
4548;DHT22;2286;51.570;7.090;2024-01-25T05:41:32;4.70;99.90
4548;DHT22;2286;51.570;7.090;2024-01-25T05:43:59;4.70;1.00
4548;DHT22;2286;51.570;7.090;2024-01-25T05:46:26;4.70;1.00
4548;DHT22;2286;51.570;7.090;2024-01-25T05:48:54;4.70;1.00
4548;DHT22;2286;51.570;7.090;2024-01-25T05:51:21;4.70;21.00
4548;DHT22;2286;51.570;7.090;2024-01-25T05:53:48;4.60;47.10
4548;DHT22;2286;51.570;7.090;2024-01-25T05:56:16;4.70;1.00
4548;DHT22;2286;51.570;7.090;2024-01-25T05:58:43;4.70;99.90
4548;DHT22;2286;51.570;7.090;2024-01-25T06:01:10;4.60;99.90
4548;DHT22;2286;51.570;7.090;2024-01-25T06:03:37;4.60;1.00
4548;DHT22;2286;51.570;7.090;2024-01-25T06:06:05;4.60;1.00
4548;DHT22;2286;51.570;7.090;2024-01-25T06:08:33;4.60;1.00
4548;DHT22;2286;51.570;7.090;2024-01-25T06:11:01;4.50;1.00
4548;DHT22;2286;51.570;7.090;2024-01-25T06:13:28;4.50;1.00
4548;DHT22;2286;51.570;7.090;2024-01-25T06:15:55;4.50;1.00
4548;DHT22;2286;51.570;7.090;2024-01-25T06:18:22;4.50;99.90
4548;DHT22;2286;51.570;7.090;2024-01-25T06:20:49;4.60;99.90
4548;DHT22;2286;51.570;7.090;2024-01-25T06:23:18;4.60;99.90
4548;DHT22;2286;51.570;7.090;2024-01-25T06:25:45;4.60;99.90
4548;DHT22;2286;51.570;7.090;2024-01-25T06:28:12;4.50;99.90
4548;DHT22;2286;51.570;7.090;2024-01-25T06:30:39;4.50;99.90
4548;DHT22;2286;51.570;7.090;2024-01-25T06:33:06;4.40;99.90
4548;DHT22;2286;51.570;7.090;2024-01-25T06:35:33;4.40;99.90
4548;DHT22;2286;51.570;7.090;2024-01-25T06:38:00;4.40;99.90
4548;DHT22;2286;51.570;7.090;2024-01-25T06:40:29;4.40;1.00
4548;DHT22;2286;51.570;7.090;2024-01-25T06:42:56;4.40;1.00
4548;DHT22;2286;51.570;7.090;2024-01-25T06:45:23;4.40;1.00
4548;DHT22;2286;51.570;7.090;2024-01-25T06:47:50;4.40;1.00
4548;DHT22;2286;51.570;7.090;2024-01-25T06:50:17;4.40;1.00
4548;DHT22;2286;51.570;7.090;2024-01-25T06:52:44;4.40;1.00
4548;DHT22;2286;51.570;7.090;2024-01-25T06:55:11;4.50;1.00
4548;DHT22;2286;51.570;7.090;2024-01-25T06:57:40;4.40;1.00
4548;DHT22;2286;51.570;7.090;2024-01-25T07:00:07;4.40;1.00
4548;DHT22;2286;51.570;7.090;2024-01-25T07:02:36;4.40;1.00
4548;DHT22;2286;51.570;7.090;2024-01-25T07:05:04;4.30;1.00
4548;DHT22;2286;51.570;7.090;2024-01-25T07:07:31;4.40;34.30
4548;DHT22;2286;51.570;7.090;2024-01-25T07:09:58;4.40;43.00
4548;DHT22;2286;51.570;7.090;2024-01-25T07:12:25;4.50;99.90
4548;DHT22;2286;51.570;7.090;2024-01-25T07:14:54;4.50;92.70
4548;DHT22;2286;51.570;7.090;2024-01-25T07:17:21;4.50;99.90
4548;DHT22;2286;51.570;7.090;2024-01-25T07:19:48;4.50;99.90
4548;DHT22;2286;51.570;7.090;2024-01-25T07:22:15;4.60;99.90
4548;DHT22;2286;51.570;7.090;2024-01-25T07:24:44;4.60;99.90
4548;DHT22;2286;51.570;7.090;2024-01-25T07:27:11;4.60;99.90
4548;DHT22;2286;51.570;7.090;2024-01-25T07:29:38;4.50;99.90
4548;DHT22;2286;51.570;7.090;2024-01-25T07:32:07;4.50;99.90
4548;DHT22;2286;51.570;7.090;2024-01-25T07:34:34;4.50;99.90
4548;DHT22;2286;51.570;7.090;2024-01-25T07:37:01;4.50;99.90
4548;DHT22;2286;51.570;7.090;2024-01-25T07:39:28;4.50;99.90
4548;DHT22;2286;51.570;7.090;2024-01-25T07:41:55;4.50;99.90
4548;DHT22;2286;51.570;7.090;2024-01-25T07:44:22;4.50;99.90
4548;DHT22;2286;51.570;7.090;2024-01-25T07:46:49;4.50;99.90
4548;DHT22;2286;51.570;7.090;2024-01-25T07:49:17;4.50;99.90
4548;DHT22;2286;51.570;7.090;2024-01-25T07:51:44;4.50;99.90
4548;DHT22;2286;51.570;7.090;2024-01-25T07:54:12;4.50;99.90
4548;DHT22;2286;51.570;7.090;2024-01-25T07:56:39;4.60;99.90
4548;DHT22;2286;51.570;7.090;2024-01-25T07:59:06;4.60;99.90
4548;DHT22;2286;51.570;7.090;2024-01-25T08:01:33;4.60;99.90
4548;DHT22;2286;51.570;7.090;2024-01-25T08:04:00;4.70;99.90
4548;DHT22;2286;51.570;7.090;2024-01-25T08:06:30;4.70;99.90
4548;DHT22;2286;51.570;7.090;2024-01-25T08:08:57;4.80;99.90
4548;DHT22;2286;51.570;7.090;2024-01-25T08:11:25;4.80;99.90
4548;DHT22;2286;51.570;7.090;2024-01-25T08:13:52;4.80;99.90
4548;DHT22;2286;51.570;7.090;2024-01-25T08:16:19;4.90;99.90
4548;DHT22;2286;51.570;7.090;2024-01-25T08:18:46;4.90;99.90
4548;DHT22;2286;51.570;7.090;2024-01-25T08:21:13;4.90;99.90
4548;DHT22;2286;51.570;7.090;2024-01-25T08:23:41;4.90;99.90
4548;DHT22;2286;51.570;7.090;2024-01-25T08:26:09;4.90;99.90
4548;DHT22;2286;51.570;7.090;2024-01-25T08:28:39;5.00;99.90
4548;DHT22;2286;51.570;7.090;2024-01-25T08:31:06;5.00;99.90
4548;DHT22;2286;51.570;7.090;2024-01-25T08:33:33;5.00;99.90
4548;DHT22;2286;51.570;7.090;2024-01-25T08:36:00;5.00;99.90
4548;DHT22;2286;51.570;7.090;2024-01-25T08:38:27;5.10;99.90
4548;DHT22;2286;51.570;7.090;2024-01-25T08:40:56;5.10;99.90
4548;DHT22;2286;51.570;7.090;2024-01-25T08:43:23;5.10;99.90
4548;DHT22;2286;51.570;7.090;2024-01-25T08:45:50;5.20;99.90
4548;DHT22;2286;51.570;7.090;2024-01-25T08:48:17;5.20;99.90
4548;DHT22;2286;51.570;7.090;2024-01-25T08:50:44;5.20;99.90
4548;DHT22;2286;51.570;7.090;2024-01-25T08:53:11;5.20;99.90
4548;DHT22;2286;51.570;7.090;2024-01-25T08:55:39;5.30;99.90
4548;DHT22;2286;51.570;7.090;2024-01-25T08:58:08;5.30;99.90
4548;DHT22;2286;51.570;7.090;2024-01-25T09:00:35;5.30;99.90
4548;DHT22;2286;51.570;7.090;2024-01-25T09:03:02;5.40;99.90
4548;DHT22;2286;51.570;7.090;2024-01-25T09:05:29;5.40;99.90
4548;DHT22;2286;51.570;7.090;2024-01-25T09:07:59;5.40;95.80
4548;DHT22;2286;51.570;7.090;2024-01-25T09:10:27;5.50;49.60
4548;DHT22;2286;51.570;7.090;2024-01-25T09:12:54;5.50;9.20
4548;DHT22;2286;51.570;7.090;2024-01-25T09:15:23;5.60;1.00
4548;DHT22;2286;51.570;7.090;2024-01-25T09:17:50;5.60;1.00
4548;DHT22;2286;51.570;7.090;2024-01-25T09:20:17;5.70;1.00
4548;DHT22;2286;51.570;7.090;2024-01-25T09:22:44;5.70;1.00
4548;DHT22;2286;51.570;7.090;2024-01-25T09:25:12;5.80;13.80
4548;DHT22;2286;51.570;7.090;2024-01-25T09:27:40;5.80;1.00
4548;DHT22;2286;51.570;7.090;2024-01-25T09:30:08;5.90;99.90
4548;DHT22;2286;51.570;7.090;2024-01-25T09:32:37;6.00;1.00
4548;DHT22;2286;51.570;7.090;2024-01-25T09:35:05;6.00;1.00
4548;DHT22;2286;51.570;7.090;2024-01-25T09:37:32;6.10;1.00
4548;DHT22;2286;51.570;7.090;2024-01-25T09:39:59;6.20;99.90
4548;DHT22;2286;51.570;7.090;2024-01-25T09:42:26;6.30;1.00
4548;DHT22;2286;51.570;7.090;2024-01-25T09:44:54;6.30;99.90
4548;DHT22;2286;51.570;7.090;2024-01-25T09:47:21;6.40;99.90
4548;DHT22;2286;51.570;7.090;2024-01-25T09:49:50;6.50;41.70
4548;DHT22;2286;51.570;7.090;2024-01-25T09:52:19;6.60;1.00
4548;DHT22;2286;51.570;7.090;2024-01-25T09:54:52;6.70;99.90
4548;DHT22;2286;51.570;7.090;2024-01-25T09:57:22;6.80;1.00
4548;DHT22;2286;51.570;7.090;2024-01-25T09:59:52;6.90;99.90
4548;DHT22;2286;51.570;7.090;2024-01-25T10:02:20;7.00;95.50
4548;DHT22;2286;51.570;7.090;2024-01-25T10:04:50;7.00;1.00
4548;DHT22;2286;51.570;7.090;2024-01-25T10:07:36;7.00;99.90
4548;DHT22;2286;51.570;7.090;2024-01-25T10:10:04;7.00;99.90
4548;DHT22;2286;51.570;7.090;2024-01-25T10:12:31;7.20;1.00
4548;DHT22;2286;51.570;7.090;2024-01-25T10:14:58;7.20;99.90
4548;DHT22;2286;51.570;7.090;2024-01-25T10:17:25;7.20;29.70
4548;DHT22;2286;51.570;7.090;2024-01-25T10:19:54;7.20;1.00
4548;DHT22;2286;51.570;7.090;2024-01-25T10:22:21;7.50;1.00
4548;DHT22;2286;51.570;7.090;2024-01-25T10:24:48;7.60;1.00
4548;DHT22;2286;51.570;7.090;2024-01-25T10:27:16;7.70;99.90
4548;DHT22;2286;51.570;7.090;2024-01-25T10:29:43;7.70;99.90
4548;DHT22;2286;51.570;7.090;2024-01-25T10:32:10;7.70;99.90
4548;DHT22;2286;51.570;7.090;2024-01-25T10:34:39;7.80;99.90
4548;DHT22;2286;51.570;7.090;2024-01-25T10:37:07;7.70;58.00
4548;DHT22;2286;51.570;7.090;2024-01-25T10:39:34;7.70;65.30
4548;DHT22;2286;51.570;7.090;2024-01-25T10:42:16;7.70;1.00
4548;DHT22;2286;51.570;7.090;2024-01-25T10:44:43;7.80;1.00
4548;DHT22;2286;51.570;7.090;2024-01-25T10:47:11;7.80;9.20
4548;DHT22;2286;51.570;7.090;2024-01-25T10:49:38;7.80;1.00
4548;DHT22;2286;51.570;7.090;2024-01-25T10:52:09;8.00;1.00
4548;DHT22;2286;51.570;7.090;2024-01-25T10:54:36;8.00;1.00
4548;DHT22;2286;51.570;7.090;2024-01-25T10:57:05;8.20;1.00
4548;DHT22;2286;51.570;7.090;2024-01-25T10:59:32;8.30;99.90
4548;DHT22;2286;51.570;7.090;2024-01-25T11:02:01;8.70;99.90
4548;DHT22;2286;51.570;7.090;2024-01-25T11:04:29;8.80;1.00
4548;DHT22;2286;51.570;7.090;2024-01-25T11:07:06;9.10;1.00
4548;DHT22;2286;51.570;7.090;2024-01-25T11:09:35;9.20;1.00
4548;DHT22;2286;51.570;7.090;2024-01-25T11:12:11;9.80;99.90
4548;DHT22;2286;51.570;7.090;2024-01-25T11:14:39;10.10;1.00
4548;DHT22;2286;51.570;7.090;2024-01-25T11:17:15;10.40;1.00
4548;DHT22;2286;51.570;7.090;2024-01-25T11:19:44;10.80;1.00
4548;DHT22;2286;51.570;7.090;2024-01-25T11:22:11;10.30;1.00
4548;DHT22;2286;51.570;7.090;2024-01-25T11:24:40;10.50;1.00
4548;DHT22;2286;51.570;7.090;2024-01-25T11:27:09;10.30;1.00
4548;DHT22;2286;51.570;7.090;2024-01-25T11:29:36;10.30;1.00
4548;DHT22;2286;51.570;7.090;2024-01-25T11:32:05;10.30;1.00
4548;DHT22;2286;51.570;7.090;2024-01-25T11:34:32;10.00;1.00
4548;DHT22;2286;51.570;7.090;2024-01-25T11:36:59;9.90;1.00
4548;DHT22;2286;51.570;7.090;2024-01-25T11:39:26;9.80;1.00
4548;DHT22;2286;51.570;7.090;2024-01-25T11:41:55;9.80;1.00
4548;DHT22;2286;51.570;7.090;2024-01-25T11:44:22;10.00;1.00
4548;DHT22;2286;51.570;7.090;2024-01-25T11:46:50;10.30;1.00
4548;DHT22;2286;51.570;7.090;2024-01-25T11:49:17;10.60;99.90
4548;DHT22;2286;51.570;7.090;2024-01-25T11:51:44;10.60;99.90
4548;DHT22;2286;51.570;7.090;2024-01-25T11:54:11;10.40;99.90
4548;DHT22;2286;51.570;7.090;2024-01-25T11:56:39;10.60;99.90
4548;DHT22;2286;51.570;7.090;2024-01-25T11:59:09;10.50;99.90
4548;DHT22;2286;51.570;7.090;2024-01-25T12:01:36;10.30;99.90
4548;DHT22;2286;51.570;7.090;2024-01-25T12:04:04;10.10;99.90
4548;DHT22;2286;51.570;7.090;2024-01-25T12:06:33;10.00;99.90
4548;DHT22;2286;51.570;7.090;2024-01-25T12:09:07;9.90;99.90
4548;DHT22;2286;51.570;7.090;2024-01-25T12:11:34;9.90;99.90
4548;DHT22;2286;51.570;7.090;2024-01-25T12:14:01;9.90;99.90
4548;DHT22;2286;51.570;7.090;2024-01-25T12:16:30;9.70;99.90
4548;DHT22;2286;51.570;7.090;2024-01-25T12:18:57;9.60;99.90
4548;DHT22;2286;51.570;7.090;2024-01-25T12:21:25;9.80;99.90
4548;DHT22;2286;51.570;7.090;2024-01-25T12:23:52;9.70;99.90
4548;DHT22;2286;51.570;7.090;2024-01-25T12:26:19;9.80;99.90
4548;DHT22;2286;51.570;7.090;2024-01-25T12:28:47;9.60;99.90
4548;DHT22;2286;51.570;7.090;2024-01-25T12:31:15;9.40;99.90
4548;DHT22;2286;51.570;7.090;2024-01-25T12:33:44;9.40;99.90
4548;DHT22;2286;51.570;7.090;2024-01-25T12:36:11;9.50;99.90
4548;DHT22;2286;51.570;7.090;2024-01-25T12:38:38;9.50;99.90
4548;DHT22;2286;51.570;7.090;2024-01-25T12:41:05;9.60;99.90
4548;DHT22;2286;51.570;7.090;2024-01-25T12:43:32;9.50;99.90
4548;DHT22;2286;51.570;7.090;2024-01-25T12:45:59;9.60;99.90
4548;DHT22;2286;51.570;7.090;2024-01-25T12:48:27;9.80;99.90
4548;DHT22;2286;51.570;7.090;2024-01-25T12:50:55;9.90;99.90
4548;DHT22;2286;51.570;7.090;2024-01-25T12:53:22;9.90;99.90
4548;DHT22;2286;51.570;7.090;2024-01-25T12:55:49;9.80;99.90
4548;DHT22;2286;51.570;7.090;2024-01-25T12:58:16;9.70;1.00
4548;DHT22;2286;51.570;7.090;2024-01-25T13:00:43;9.60;1.00
4548;DHT22;2286;51.570;7.090;2024-01-25T13:03:11;9.50;1.00
4548;DHT22;2286;51.570;7.090;2024-01-25T13:05:38;9.50;1.00
4548;DHT22;2286;51.570;7.090;2024-01-25T13:08:07;9.40;1.00
4548;DHT22;2286;51.570;7.090;2024-01-25T13:10:34;9.30;1.00
4548;DHT22;2286;51.570;7.090;2024-01-25T13:13:01;9.40;1.00
4548;DHT22;2286;51.570;7.090;2024-01-25T13:15:28;9.50;1.00
4548;DHT22;2286;51.570;7.090;2024-01-25T13:17:55;9.60;1.00
4548;DHT22;2286;51.570;7.090;2024-01-25T13:20:23;9.80;1.00
4548;DHT22;2286;51.570;7.090;2024-01-25T13:22:50;10.60;1.00
4548;DHT22;2286;51.570;7.090;2024-01-25T13:25:18;11.00;99.90
4548;DHT22;2286;51.570;7.090;2024-01-25T13:27:45;11.50;47.70
4548;DHT22;2286;51.570;7.090;2024-01-25T13:30:12;11.40;1.00
4548;DHT22;2286;51.570;7.090;2024-01-25T13:32:40;11.10;92.90
4548;DHT22;2286;51.570;7.090;2024-01-25T13:35:07;11.20;55.80
4548;DHT22;2286;51.570;7.090;2024-01-25T13:37:34;11.10;97.40
4548;DHT22;2286;51.570;7.090;2024-01-25T13:40:01;10.80;99.90
4548;DHT22;2286;51.570;7.090;2024-01-25T13:42:30;10.60;99.90
4548;DHT22;2286;51.570;7.090;2024-01-25T13:44:57;10.70;99.90
4548;DHT22;2286;51.570;7.090;2024-01-25T13:47:24;10.90;99.90
4548;DHT22;2286;51.570;7.090;2024-01-25T13:49:51;10.80;99.90
4548;DHT22;2286;51.570;7.090;2024-01-25T13:52:19;10.40;99.90
4548;DHT22;2286;51.570;7.090;2024-01-25T13:54:47;10.50;99.90
4548;DHT22;2286;51.570;7.090;2024-01-25T13:57:15;10.40;99.90
4548;DHT22;2286;51.570;7.090;2024-01-25T13:59:44;10.60;99.90
4548;DHT22;2286;51.570;7.090;2024-01-25T14:02:11;10.40;99.90
4548;DHT22;2286;51.570;7.090;2024-01-25T14:04:38;10.40;99.90
4548;DHT22;2286;51.570;7.090;2024-01-25T14:07:05;10.30;99.90
4548;DHT22;2286;51.570;7.090;2024-01-25T14:09:32;10.20;99.90
4548;DHT22;2286;51.570;7.090;2024-01-25T14:11:59;10.00;99.90
4548;DHT22;2286;51.570;7.090;2024-01-25T14:14:26;9.90;99.90
4548;DHT22;2286;51.570;7.090;2024-01-25T14:16:54;9.70;1.00
4548;DHT22;2286;51.570;7.090;2024-01-25T14:19:21;9.70;1.00
4548;DHT22;2286;51.570;7.090;2024-01-25T14:21:49;9.90;1.00
4548;DHT22;2286;51.570;7.090;2024-01-25T14:24:16;9.90;1.00
4548;DHT22;2286;51.570;7.090;2024-01-25T14:26:44;10.00;1.00
4548;DHT22;2286;51.570;7.090;2024-01-25T14:29:11;10.00;1.00
4548;DHT22;2286;51.570;7.090;2024-01-25T14:31:38;9.80;1.00
4548;DHT22;2286;51.570;7.090;2024-01-25T14:34:08;9.70;1.00
4548;DHT22;2286;51.570;7.090;2024-01-25T14:36:35;9.60;1.00
4548;DHT22;2286;51.570;7.090;2024-01-25T14:39:03;9.70;1.00
4548;DHT22;2286;51.570;7.090;2024-01-25T14:41:30;9.70;1.00
4548;DHT22;2286;51.570;7.090;2024-01-25T14:43:59;9.50;1.00
4548;DHT22;2286;51.570;7.090;2024-01-25T14:46:26;9.40;1.00
4548;DHT22;2286;51.570;7.090;2024-01-25T14:48:53;9.40;1.00
4548;DHT22;2286;51.570;7.090;2024-01-25T14:51:24;9.30;18.80
4548;DHT22;2286;51.570;7.090;2024-01-25T14:53:51;9.40;41.50
4548;DHT22;2286;51.570;7.090;2024-01-25T14:56:18;9.40;11.30
4548;DHT22;2286;51.570;7.090;2024-01-25T14:58:45;9.30;28.90
4548;DHT22;2286;51.570;7.090;2024-01-25T15:01:13;9.30;99.90
4548;DHT22;2286;51.570;7.090;2024-01-25T15:03:40;9.30;99.90
4548;DHT22;2286;51.570;7.090;2024-01-25T15:06:07;9.20;99.90
4548;DHT22;2286;51.570;7.090;2024-01-25T15:08:36;9.10;99.90
4548;DHT22;2286;51.570;7.090;2024-01-25T15:11:03;9.10;99.90
4548;DHT22;2286;51.570;7.090;2024-01-25T15:13:30;9.10;99.90
4548;DHT22;2286;51.570;7.090;2024-01-25T15:15:57;9.00;99.90
4548;DHT22;2286;51.570;7.090;2024-01-25T15:18:24;9.00;99.90
4548;DHT22;2286;51.570;7.090;2024-01-25T15:20:51;9.00;99.90
4548;DHT22;2286;51.570;7.090;2024-01-25T15:23:18;9.00;99.90
4548;DHT22;2286;51.570;7.090;2024-01-25T15:25:47;9.00;99.90
4548;DHT22;2286;51.570;7.090;2024-01-25T15:28:15;9.00;99.90
4548;DHT22;2286;51.570;7.090;2024-01-25T15:30:42;9.00;99.90
4548;DHT22;2286;51.570;7.090;2024-01-25T15:33:09;9.00;99.90
4548;DHT22;2286;51.570;7.090;2024-01-25T15:35:36;8.90;1.00
4548;DHT22;2286;51.570;7.090;2024-01-25T15:38:06;8.90;1.00
4548;DHT22;2286;51.570;7.090;2024-01-25T15:40:33;8.90;1.00
4548;DHT22;2286;51.570;7.090;2024-01-25T15:43:02;8.90;1.00
4548;DHT22;2286;51.570;7.090;2024-01-25T15:45:29;8.90;1.00
4548;DHT22;2286;51.570;7.090;2024-01-25T15:47:56;8.90;1.00
4548;DHT22;2286;51.570;7.090;2024-01-25T15:50:23;8.80;1.00
4548;DHT22;2286;51.570;7.090;2024-01-25T15:52:50;8.90;1.00
4548;DHT22;2286;51.570;7.090;2024-01-25T15:55:19;8.90;1.00
4548;DHT22;2286;51.570;7.090;2024-01-25T15:57:46;8.80;1.00
4548;DHT22;2286;51.570;7.090;2024-01-25T16:00:15;8.80;1.00
4548;DHT22;2286;51.570;7.090;2024-01-25T16:02:43;8.70;1.00
4548;DHT22;2286;51.570;7.090;2024-01-25T16:05:10;8.70;1.00
4548;DHT22;2286;51.570;7.090;2024-01-25T16:07:37;8.70;1.00
4548;DHT22;2286;51.570;7.090;2024-01-25T16:10:05;8.70;1.00
4548;DHT22;2286;51.570;7.090;2024-01-25T16:12:32;8.70;1.00
4548;DHT22;2286;51.570;7.090;2024-01-25T16:14:59;8.70;1.00
4548;DHT22;2286;51.570;7.090;2024-01-25T16:17:27;8.60;5.00
4548;DHT22;2286;51.570;7.090;2024-01-25T16:19:54;8.60;99.90
4548;DHT22;2286;51.570;7.090;2024-01-25T16:22:21;8.60;99.90
4548;DHT22;2286;51.570;7.090;2024-01-25T16:24:48;8.60;99.90